sensor_id;sensor_type;location;lat;lon;timestamp;pressure;altitude;pressure_sealevel;temperature;humidity
80335;BME280;69653;52.674;13.574;2023-11-21T00:01:37;100026.78;;;5.67;100.00
80335;BME280;69653;52.674;13.574;2023-11-21T00:04:03;100032.03;;;5.58;100.00
80335;BME280;69653;52.674;13.574;2023-11-21T00:06:28;100031.19;;;5.58;100.00
80335;BME280;69653;52.674;13.574;2023-11-21T00:08:55;100036.06;;;5.61;100.00
80335;BME280;69653;52.674;13.574;2023-11-21T00:11:21;100044.22;;;5.56;100.00
80335;BME280;69653;52.674;13.574;2023-11-21T00:13:46;100042.88;;;5.53;100.00
80335;BME280;69653;52.674;13.574;2023-11-21T00:16:11;100043.97;;;5.47;100.00
80335;BME280;69653;52.674;13.574;2023-11-21T00:18:37;100038.53;;;5.52;100.00
80335;BME280;69653;52.674;13.574;2023-11-21T00:21:02;100054.81;;;5.52;100.00
80335;BME280;69653;52.674;13.574;2023-11-21T00:23:28;100058.59;;;5.51;100.00
80335;BME280;69653;52.674;13.574;2023-11-21T00:25:54;100053.75;;;5.48;100.00
80335;BME280;69653;52.674;13.574;2023-11-21T00:28:19;100053.75;;;5.48;100.00
80335;BME280;69653;52.674;13.574;2023-11-21T00:30:45;100063.50;;;5.49;100.00
80335;BME280;69653;52.674;13.574;2023-11-21T00:33:10;100065.16;;;5.40;100.00
80335;BME280;69653;52.674;13.574;2023-11-21T00:35:36;100062.50;;;5.35;100.00
80335;BME280;69653;52.674;13.574;2023-11-21T00:38:01;100071.97;;;5.37;100.00
80335;BME280;69653;52.674;13.574;2023-11-21T00:40:28;100062.78;;;5.33;100.00
80335;BME280;69653;52.674;13.574;2023-11-21T00:42:54;100062.78;;;5.33;100.00
80335;BME280;69653;52.674;13.574;2023-11-21T00:45:21;100065.53;;;5.28;100.00
80335;BME280;69653;52.674;13.574;2023-11-21T00:47:46;100068.50;;;5.22;100.00
80335;BME280;69653;52.674;13.574;2023-11-21T00:50:12;100074.50;;;5.19;100.00
80335;BME280;69653;52.674;13.574;2023-11-21T00:52:37;100064.75;;;5.13;100.00
80335;BME280;69653;52.674;13.574;2023-11-21T00:55:04;100065.03;;;5.06;100.00
80335;BME280;69653;52.674;13.574;2023-11-21T00:57:29;100071.81;;;5.04;99.99
80335;BME280;69653;52.674;13.574;2023-11-21T00:59:55;100064.81;;;4.98;100.00
80335;BME280;69653;52.674;13.574;2023-11-21T01:02:20;100078.38;;;4.93;100.00
80335;BME280;69653;52.674;13.574;2023-11-21T01:04:45;100075.66;;;4.93;100.00
80335;BME280;69653;52.674;13.574;2023-11-21T01:07:12;100079.72;;;4.90;100.00
80335;BME280;69653;52.674;13.574;2023-11-21T01:09:38;100077.28;;;4.88;100.00
80335;BME280;69653;52.674;13.574;2023-11-21T01:12:04;100090.84;;;4.88;100.00
80335;BME280;69653;52.674;13.574;2023-11-21T01:14:29;100085.97;;;4.85;100.00
80335;BME280;69653;52.674;13.574;2023-11-21T01:16:55;100087.59;;;4.81;100.00
80335;BME280;69653;52.674;13.574;2023-11-21T01:19:20;100093.84;;;4.82;100.00
80335;BME280;69653;52.674;13.574;2023-11-21T01:21:45;100101.69;;;4.83;100.00
80335;BME280;69653;52.674;13.574;2023-11-21T01:24:11;100096.81;;;4.80;100.00
80335;BME280;69653;52.674;13.574;2023-11-21T01:26:36;100107.63;;;4.80;100.00
80335;BME280;69653;52.674;13.574;2023-11-21T01:29:02;100105.22;;;4.79;100.00
80335;BME280;69653;52.674;13.574;2023-11-21T01:31:27;100112.78;;;4.82;100.00
80335;BME280;69653;52.674;13.574;2023-11-21T01:33:55;100127.97;;;4.83;100.00
80335;BME280;69653;52.674;13.574;2023-11-21T01:36:20;100130.94;;;4.76;100.00
80335;BME280;69653;52.674;13.574;2023-11-21T01:38:46;100123.09;;;4.80;100.00
80335;BME280;69653;52.674;13.574;2023-11-21T01:41:13;100125.53;;;4.81;100.00
80335;BME280;69653;52.674;13.574;2023-11-21T01:43:38;100120.09;;;4.81;100.00
80335;BME280;69653;52.674;13.574;2023-11-21T01:46:04;100122.00;;;4.86;100.00
80335;BME280;69653;52.674;13.574;2023-11-21T01:48:32;100120.91;;;4.82;100.00
80335;BME280;69653;52.674;13.574;2023-11-21T01:50:58;100122.81;;;4.86;100.00
80335;BME280;69653;52.674;13.574;2023-11-21T01:53:26;100122.00;;;4.86;100.00
80335;BME280;69653;52.674;13.574;2023-11-21T01:55:53;100119.56;;;4.84;100.00
80335;BME280;69653;52.674;13.574;2023-11-21T01:58:19;100128.22;;;4.81;100.00
80335;BME280;69653;52.674;13.574;2023-11-21T02:00:45;100126.06;;;4.78;100.00
80335;BME280;69653;52.674;13.574;2023-11-21T02:03:10;100128.53;;;4.80;100.00
80335;BME280;69653;52.674;13.574;2023-11-21T02:05:36;100133.38;;;4.83;100.00
80335;BME280;69653;52.674;13.574;2023-11-21T02:08:01;100129.31;;;4.85;100.00
80335;BME280;69653;52.674;13.574;2023-11-21T02:10:28;100132.03;;;4.85;100.00
80335;BME280;69653;52.674;13.574;2023-11-21T02:12:54;100132.84;;;4.86;100.00
80335;BME280;69653;52.674;13.574;2023-11-21T02:15:21;100123.38;;;4.78;100.00
80335;BME280;69653;52.674;13.574;2023-11-21T02:17:49;100127.97;;;4.78;100.00
80335;BME280;69653;52.674;13.574;2023-11-21T02:20:17;100136.34;;;4.81;100.00
80335;BME280;69653;52.674;13.574;2023-11-21T02:22:44;100135.81;;;4.84;100.00
80335;BME280;69653;52.674;13.574;2023-11-21T02:25:10;100136.91;;;4.83;100.00
80335;BME280;69653;52.674;13.574;2023-11-21T02:27:36;100138.00;;;4.77;100.00
80335;BME280;69653;52.674;13.574;2023-11-21T02:30:03;100139.63;;;4.78;100.00
80335;BME280;69653;52.674;13.574;2023-11-21T02:32:29;100141.78;;;4.81;100.00
80335;BME280;69653;52.674;13.574;2023-11-21T02:34:56;100157.78;;;4.83;100.00
80335;BME280;69653;52.674;13.574;2023-11-21T02:37:26;100154.78;;;4.74;100.00
80335;BME280;69653;52.674;13.574;2023-11-21T02:39:51;100155.03;;;4.73;100.00
80335;BME280;69653;52.674;13.574;2023-11-21T02:42:17;100148.56;;;4.69;100.00
80335;BME280;69653;52.674;13.574;2023-11-21T02:44:43;100151.81;;;4.71;100.00
80335;BME280;69653;52.674;13.574;2023-11-21T02:47:08;100155.06;;;4.68;100.00
80335;BME280;69653;52.674;13.574;2023-11-21T02:49:34;100153.97;;;4.64;99.76
80335;BME280;69653;52.674;13.574;2023-11-21T02:52:01;100154.25;;;4.72;100.00
80335;BME280;69653;52.674;13.574;2023-11-21T02:54:26;100158.56;;;4.73;100.00
80335;BME280;69653;52.674;13.574;2023-11-21T02:56:52;100147.19;;;4.66;100.00
80335;BME280;69653;52.674;13.574;2023-11-21T02:59:17;100154.50;;;4.66;100.00
80335;BME280;69653;52.674;13.574;2023-11-21T03:01:43;100160.75;;;4.66;99.88
80335;BME280;69653;52.674;13.574;2023-11-21T03:04:08;100159.66;;;4.62;99.46
80335;BME280;69653;52.674;13.574;2023-11-21T03:06:33;100161.84;;;4.60;99.62
80335;BME280;69653;52.674;13.574;2023-11-21T03:08:59;100154.53;;;4.56;99.53
80335;BME280;69653;52.674;13.574;2023-11-21T03:11:24;100163.44;;;4.51;98.63
80335;BME280;69653;52.674;13.574;2023-11-21T03:13:49;100165.63;;;4.49;98.46
80335;BME280;69653;52.674;13.574;2023-11-21T03:16:16;100178.38;;;4.54;99.02
80335;BME280;69653;52.674;13.574;2023-11-21T03:18:41;100175.38;;;4.50;98.85
80335;BME280;69653;52.674;13.574;2023-11-21T03:21:07;100177.00;;;4.46;98.47
80335;BME280;69653;52.674;13.574;2023-11-21T03:23:36;100187.28;;;4.49;98.29
80335;BME280;69653;52.674;13.574;2023-11-21T03:26:02;100180.25;;;4.48;99.54
80335;BME280;69653;52.674;13.574;2023-11-21T03:28:27;100188.38;;;4.48;98.94
80335;BME280;69653;52.674;13.574;2023-11-21T03:30:53;100187.28;;;4.49;99.25
80335;BME280;69653;52.674;13.574;2023-11-21T03:33:19;100188.91;;;4.50;99.67
80335;BME280;69653;52.674;13.574;2023-11-21T03:35:44;100191.06;;;4.48;98.55
80335;BME280;69653;52.674;13.574;2023-11-21T03:38:10;100202.47;;;4.50;98.41
80335;BME280;69653;52.674;13.574;2023-11-21T03:40:35;100198.13;;;4.49;98.46
80335;BME280;69653;52.674;13.574;2023-11-21T03:43:01;100204.88;;;4.52;98.55
80335;BME280;69653;52.674;13.574;2023-11-21T03:45:26;100205.69;;;4.47;97.15
80335;BME280;69653;52.674;13.574;2023-11-21T03:47:51;100207.84;;;4.45;96.99
80335;BME280;69653;52.674;13.574;2023-11-21T03:50:17;100198.91;;;4.45;97.92
80335;BME280;69653;52.674;13.574;2023-11-21T03:52:42;100206.22;;;4.44;97.88
80335;BME280;69653;52.674;13.574;2023-11-21T03:55:08;100213.28;;;4.45;97.39
80335;BME280;69653;52.674;13.574;2023-11-21T03:57:33;100209.75;;;4.45;97.70
80335;BME280;69653;52.674;13.574;2023-11-21T03:59:58;100205.41;;;4.44;97.83
80335;BME280;69653;52.674;13.574;2023-11-21T04:02:24;100218.66;;;4.40;97.07
80335;BME280;69653;52.674;13.574;2023-11-21T04:04:51;100223.00;;;4.41;97.22
80335;BME280;69653;52.674;13.574;2023-11-21T04:07:16;100213.25;;;4.30;97.49
80335;BME280;69653;52.674;13.574;2023-11-21T04:09:42;100226.78;;;4.40;97.30
80335;BME280;69653;52.674;13.574;2023-11-21T04:12:08;100231.13;;;4.41;97.86
80335;BME280;69653;52.674;13.574;2023-11-21T04:14:36;100234.66;;;4.42;97.11
80335;BME280;69653;52.674;13.574;2023-11-21T04:17:01;100232.50;;;4.38;97.30
80335;BME280;69653;52.674;13.574;2023-11-21T04:19:26;100234.38;;;4.38;97.24
80335;BME280;69653;52.674;13.574;2023-11-21T04:21:52;100235.44;;;4.32;97.05
80335;BME280;69653;52.674;13.574;2023-11-21T04:24:17;100245.47;;;4.36;96.87
80335;BME280;69653;52.674;13.574;2023-11-21T04:26:46;100244.09;;;4.34;96.13
80335;BME280;69653;52.674;13.574;2023-11-21T04:29:12;100241.13;;;4.30;96.53
80335;BME280;69653;52.674;13.574;2023-11-21T04:31:37;100247.34;;;4.26;95.02
80335;BME280;69653;52.674;13.574;2023-11-21T04:34:02;100252.75;;;4.26;96.32
80335;BME280;69653;52.674;13.574;2023-11-21T04:36:29;100264.66;;;4.20;94.98
80335;BME280;69653;52.674;13.574;2023-11-21T04:38:56;100252.44;;;4.12;95.87
80335;BME280;69653;52.674;13.574;2023-11-21T04:41:21;100269.50;;;4.13;95.84
80335;BME280;69653;52.674;13.574;2023-11-21T04:43:46;100262.97;;;4.14;95.87
80335;BME280;69653;52.674;13.574;2023-11-21T04:46:12;100277.91;;;4.16;96.92
80335;BME280;69653;52.674;13.574;2023-11-21T04:48:38;100261.09;;;4.14;96.68
80335;BME280;69653;52.674;13.574;2023-11-21T04:51:03;100267.59;;;4.18;96.41
80335;BME280;69653;52.674;13.574;2023-11-21T04:53:29;100275.44;;;4.15;96.27
80335;BME280;69653;52.674;13.574;2023-11-21T04:55:55;100283.56;;;4.15;96.25
80335;BME280;69653;52.674;13.574;2023-11-21T04:58:20;100276.22;;;4.10;96.08
80335;BME280;69653;52.674;13.574;2023-11-21T05:00:46;100290.31;;;4.12;96.96
80335;BME280;69653;52.674;13.574;2023-11-21T05:03:11;100292.78;;;4.19;97.17
80335;BME280;69653;52.674;13.574;2023-11-21T05:05:37;100286.53;;;4.13;95.67
80335;BME280;69653;52.674;13.574;2023-11-21T05:08:03;100297.66;;;4.17;95.33
80335;BME280;69653;52.674;13.574;2023-11-21T05:10:28;100293.56;;;4.14;95.41
80335;BME280;69653;52.674;13.574;2023-11-21T05:12:54;100289.53;;;4.17;96.88
80335;BME280;69653;52.674;13.574;2023-11-21T05:15:21;100287.59;;;4.07;96.60
80335;BME280;69653;52.674;13.574;2023-11-21T05:17:46;100300.31;;;4.12;95.37
80335;BME280;69653;52.674;13.574;2023-11-21T05:20:15;100312.50;;;4.09;95.84
80335;BME280;69653;52.674;13.574;2023-11-21T05:22:47;100306.25;;;4.04;95.99
80335;BME280;69653;52.674;13.574;2023-11-21T05:25:13;100310.06;;;4.08;95.75
80335;BME280;69653;52.674;13.574;2023-11-21T05:27:39;100320.06;;;4.07;95.47
80335;BME280;69653;52.674;13.574;2023-11-21T05:30:06;100308.63;;;3.95;96.31
80335;BME280;69653;52.674;13.574;2023-11-21T05:32:32;100323.25;;;3.99;95.04
80335;BME280;69653;52.674;13.574;2023-11-21T05:34:58;100322.44;;;3.94;94.99
80335;BME280;69653;52.674;13.574;2023-11-21T05:37:23;100321.63;;;3.93;95.35
80335;BME280;69653;52.674;13.574;2023-11-21T05:39:49;100327.31;;;3.97;95.93
80335;BME280;69653;52.674;13.574;2023-11-21T05:42:15;100325.97;;;3.99;95.51
80335;BME280;69653;52.674;13.574;2023-11-21T05:44:42;100337.34;;;4.01;95.56
80335;BME280;69653;52.674;13.574;2023-11-21T05:47:08;100341.69;;;4.07;94.97
80335;BME280;69653;52.674;13.574;2023-11-21T05:49:34;100334.94;;;4.05;94.19
80335;BME280;69653;52.674;13.574;2023-11-21T05:51:59;100340.31;;;4.00;94.29
80335;BME280;69653;52.674;13.574;2023-11-21T05:54:25;100349.78;;;4.02;94.27
80335;BME280;69653;52.674;13.574;2023-11-21T05:56:51;100350.31;;;3.94;94.65
80335;BME280;69653;52.674;13.574;2023-11-21T05:59:16;100346.50;;;3.90;93.92
80335;BME280;69653;52.674;13.574;2023-11-21T06:01:41;100353.78;;;3.89;94.31
80335;BME280;69653;52.674;13.574;2023-11-21T06:04:07;100356.19;;;3.86;94.54
80335;BME280;69653;52.674;13.574;2023-11-21T06:06:35;100368.94;;;3.90;95.36
80335;BME280;69653;52.674;13.574;2023-11-21T06:09:00;100375.44;;;3.95;95.96
80335;BME280;69653;52.674;13.574;2023-11-21T06:11:25;100372.47;;;3.96;96.13
80335;BME280;69653;52.674;13.574;2023-11-21T06:13:50;100378.66;;;3.91;95.00
80335;BME280;69653;52.674;13.574;2023-11-21T06:16:17;100371.59;;;3.85;94.32
80335;BME280;69653;52.674;13.574;2023-11-21T06:18:45;100375.66;;;3.88;94.58
80335;BME280;69653;52.674;13.574;2023-11-21T06:21:10;100386.50;;;3.88;95.44
80335;BME280;69653;52.674;13.574;2023-11-21T06:23:36;100392.47;;;3.90;94.42
80335;BME280;69653;52.674;13.574;2023-11-21T06:26:01;100391.59;;;3.84;94.53
80335;BME280;69653;52.674;13.574;2023-11-21T06:28:26;100399.47;;;3.86;94.19
80335;BME280;69653;52.674;13.574;2023-11-21T06:30:52;100394.03;;;3.81;94.48
80335;BME280;69653;52.674;13.574;2023-11-21T06:33:18;100413.00;;;3.91;96.04
80335;BME280;69653;52.674;13.574;2023-11-21T06:35:44;100405.19;;;3.89;95.18
80335;BME280;69653;52.674;13.574;2023-11-21T06:38:10;100409.25;;;3.92;94.60
80335;BME280;69653;52.674;13.574;2023-11-21T06:40:35;100432.78;;;3.91;94.75
80335;BME280;69653;52.674;13.574;2023-11-21T06:43:00;100420.34;;;3.90;94.98
80335;BME280;69653;52.674;13.574;2023-11-21T06:45:26;100437.63;;;3.89;94.30
80335;BME280;69653;52.674;13.574;2023-11-21T06:47:51;100441.41;;;3.88;94.17
80335;BME280;69653;52.674;13.574;2023-11-21T06:50:17;100433.25;;;3.83;94.40
80335;BME280;69653;52.674;13.574;2023-11-21T06:52:42;100437.03;;;3.82;93.72
80335;BME280;69653;52.674;13.574;2023-11-21T06:55:08;100444.41;;;3.87;94.28
80335;BME280;69653;52.674;13.574;2023-11-21T06:57:35;100438.69;;;3.88;94.78
80335;BME280;69653;52.674;13.574;2023-11-21T07:00:00;100430.03;;;3.86;94.39
80335;BME280;69653;52.674;13.574;2023-11-21T07:02:26;100450.38;;;3.94;95.21
80335;BME280;69653;52.674;13.574;2023-11-21T07:04:52;100446.09;;;3.98;94.90
80335;BME280;69653;52.674;13.574;2023-11-21T07:07:18;100449.59;;;3.99;94.69
80335;BME280;69653;52.674;13.574;2023-11-21T07:09:44;100453.88;;;3.89;93.40
80335;BME280;69653;52.674;13.574;2023-11-21T07:12:10;100446.81;;;3.88;92.46
80335;BME280;69653;52.674;13.574;2023-11-21T07:14:36;100447.63;;;3.89;92.48
80335;BME280;69653;52.674;13.574;2023-11-21T07:17:04;100456.22;;;3.81;92.02
80335;BME280;69653;52.674;13.574;2023-11-21T07:19:29;100460.28;;;3.83;91.78
80335;BME280;69653;52.674;13.574;2023-11-21T07:21:54;100464.63;;;3.79;91.86
80335;BME280;69653;52.674;13.574;2023-11-21T07:24:20;100464.03;;;3.77;91.71
80335;BME280;69653;52.674;13.574;2023-11-21T07:26:46;100459.44;;;3.78;92.37
80335;BME280;69653;52.674;13.574;2023-11-21T07:29:13;100457.56;;;3.78;91.71
80335;BME280;69653;52.674;13.574;2023-11-21T07:31:38;100460.50;;;3.72;91.78
80335;BME280;69653;52.674;13.574;2023-11-21T07:34:04;100469.38;;;3.67;91.81
80335;BME280;69653;52.674;13.574;2023-11-21T07:36:29;100466.38;;;3.64;92.46
80335;BME280;69653;52.674;13.574;2023-11-21T07:38:54;100479.13;;;3.68;92.77
80335;BME280;69653;52.674;13.574;2023-11-21T07:41:20;100476.41;;;3.68;92.98
80335;BME280;69653;52.674;13.574;2023-11-21T07:43:46;100486.16;;;3.69;93.36
80335;BME280;69653;52.674;13.574;2023-11-21T07:46:12;100478.84;;;3.70;92.96
80335;BME280;69653;52.674;13.574;2023-11-21T07:48:39;100488.09;;;3.74;92.03
80335;BME280;69653;52.674;13.574;2023-11-21T07:51:05;100479.44;;;3.72;91.51
80335;BME280;69653;52.674;13.574;2023-11-21T07:53:30;100478.63;;;3.76;91.62
80335;BME280;69653;52.674;13.574;2023-11-21T07:55:57;100475.09;;;3.71;91.41
80335;BME280;69653;52.674;13.574;2023-11-21T07:58:22;100494.38;;;3.79;91.71
80335;BME280;69653;52.674;13.574;2023-11-21T08:00:48;100494.06;;;3.76;92.58
80335;BME280;69653;52.674;13.574;2023-11-21T08:03:14;100503.75;;;3.72;92.36
80335;BME280;69653;52.674;13.574;2023-11-21T08:05:39;100506.97;;;3.69;92.05
80335;BME280;69653;52.674;13.574;2023-11-21T08:08:05;100514.47;;;3.62;92.11
80335;BME280;69653;52.674;13.574;2023-11-21T08:10:30;100515.56;;;3.61;92.91
80335;BME280;69653;52.674;13.574;2023-11-21T08:12:56;100523.09;;;3.59;93.54
80335;BME280;69653;52.674;13.574;2023-11-21T08:15:21;100521.44;;;3.58;94.38
80335;BME280;69653;52.674;13.574;2023-11-21T08:17:47;100521.28;;;3.64;94.73
80335;BME280;69653;52.674;13.574;2023-11-21T08:20:13;100515.84;;;3.64;94.42
80335;BME280;69653;52.674;13.574;2023-11-21T08:22:44;100521.00;;;3.66;93.49
80335;BME280;69653;52.674;13.574;2023-11-21T08:25:10;100521.00;;;3.66;94.13
80335;BME280;69653;52.674;13.574;2023-11-21T08:27:35;100531.56;;;3.67;93.75
80335;BME280;69653;52.674;13.574;2023-11-21T08:30:02;100528.56;;;3.64;93.30
80335;BME280;69653;52.674;13.574;2023-11-21T08:32:28;100526.09;;;3.62;93.18
80335;BME280;69653;52.674;13.574;2023-11-21T08:34:55;100546.16;;;3.66;93.23
80335;BME280;69653;52.674;13.574;2023-11-21T08:37:21;100536.38;;;3.60;93.42
80335;BME280;69653;52.674;13.574;2023-11-21T08:39:47;100526.38;;;3.61;94.09
80335;BME280;69653;52.674;13.574;2023-11-21T08:42:13;100541.25;;;3.63;94.00
80335;BME280;69653;52.674;13.574;2023-11-21T08:44:39;100550.13;;;3.59;93.95
80335;BME280;69653;52.674;13.574;2023-11-21T08:47:05;100547.44;;;3.59;93.30
80335;BME280;69653;52.674;13.574;2023-11-21T08:49:31;100560.63;;;3.55;94.09
80335;BME280;69653;52.674;13.574;2023-11-21T08:51:57;100554.41;;;3.55;94.85
80335;BME280;69653;52.674;13.574;2023-11-21T08:54:25;100565.53;;;3.58;95.01
80335;BME280;69653;52.674;13.574;2023-11-21T08:56:51;100563.84;;;3.52;93.93
80335;BME280;69653;52.674;13.574;2023-11-21T08:59:16;100570.13;;;3.58;93.48
80335;BME280;69653;52.674;13.574;2023-11-21T09:01:42;100563.28;;;3.50;93.14
80335;BME280;69653;52.674;13.574;2023-11-21T09:04:07;100571.38;;;3.50;92.65
80335;BME280;69653;52.674;13.574;2023-11-21T09:06:33;100576.56;;;3.52;92.00
80335;BME280;69653;52.674;13.574;2023-11-21T09:08:58;100583.84;;;3.51;91.98
80335;BME280;69653;52.674;13.574;2023-11-21T09:11:24;100581.97;;;3.52;91.45
80335;BME280;69653;52.674;13.574;2023-11-21T09:13:50;100589.75;;;3.48;90.53
80335;BME280;69653;52.674;13.574;2023-11-21T09:16:16;100591.44;;;3.54;91.26
80335;BME280;69653;52.674;13.574;2023-11-21T09:18:42;100589.81;;;3.53;90.80
80335;BME280;69653;52.674;13.574;2023-11-21T09:21:07;100593.66;;;3.57;90.57
80335;BME280;69653;52.674;13.574;2023-11-21T09:23:34;100600.22;;;3.66;90.30
80335;BME280;69653;52.674;13.574;2023-11-21T09:25:59;100607.06;;;3.74;89.40
80335;BME280;69653;52.674;13.574;2023-11-21T09:28:26;100611.66;;;3.73;89.43
80335;BME280;69653;52.674;13.574;2023-11-21T09:30:53;100604.69;;;3.77;88.85
80335;BME280;69653;52.674;13.574;2023-11-21T09:33:19;100612.78;;;3.77;89.04
80335;BME280;69653;52.674;13.574;2023-11-21T09:35:46;100610.53;;;3.69;89.50
80335;BME280;69653;52.674;13.574;2023-11-21T09:38:11;100619.75;;;3.68;90.00
80335;BME280;69653;52.674;13.574;2023-11-21T09:40:37;100631.00;;;3.60;89.87
80335;BME280;69653;52.674;13.574;2023-11-21T09:43:16;100627.16;;;3.56;90.72
80335;BME280;69653;52.674;13.574;2023-11-21T09:45:46;100633.94;;;3.59;91.11
80335;BME280;69653;52.674;13.574;2023-11-21T09:48:13;100639.13;;;3.60;91.30
80335;BME280;69653;52.674;13.574;2023-11-21T09:50:40;100635.78;;;3.53;91.52
80335;BME280;69653;52.674;13.574;2023-11-21T09:55:45;100651.38;;;3.46;91.38
80335;BME280;69653;52.674;13.574;2023-11-21T09:58:11;100648.91;;;3.45;92.48
80335;BME280;69653;52.674;13.574;2023-11-21T10:00:42;100643.75;;;3.43;92.28
80335;BME280;69653;52.674;13.574;2023-11-21T10:03:09;100648.41;;;3.48;92.46
80335;BME280;69653;52.674;13.574;2023-11-21T10:05:36;100650.56;;;3.46;92.23
80335;BME280;69653;52.674;13.574;2023-11-21T10:08:04;100646.16;;;3.39;91.83
80335;BME280;69653;52.674;13.574;2023-11-21T10:10:32;100646.56;;;3.31;91.50
80335;BME280;69653;52.674;13.574;2023-11-21T10:13:01;100649.53;;;3.30;91.76
80335;BME280;69653;52.674;13.574;2023-11-21T10:15:28;100653.31;;;3.29;91.54
80335;BME280;69653;52.674;13.574;2023-11-21T10:17:55;100668.47;;;3.30;90.73
80335;BME280;69653;52.674;13.574;2023-11-21T10:20:20;100658.09;;;3.22;91.41
80335;BME280;69653;52.674;13.574;2023-11-21T10:22:47;100662.97;;;3.25;91.78
80335;BME280;69653;52.674;13.574;2023-11-21T10:25:12;100652.16;;;3.25;91.77
80335;BME280;69653;52.674;13.574;2023-11-21T10:27:42;100656.31;;;3.32;92.13
80335;BME280;69653;52.674;13.574;2023-11-21T10:30:09;100652.75;;;3.27;90.14
80335;BME280;69653;52.674;13.574;2023-11-21T10:32:41;100661.00;;;3.37;90.19
80335;BME280;69653;52.674;13.574;2023-11-21T10:35:09;100657.78;;;3.40;90.66
80335;BME280;69653;52.674;13.574;2023-11-21T10:37:38;100664.63;;;3.48;90.41
80335;BME280;69653;52.674;13.574;2023-11-21T10:40:09;100666.31;;;3.54;90.51
80335;BME280;69653;52.674;13.574;2023-11-21T10:42:38;100674.50;;;3.59;89.25
80335;BME280;69653;52.674;13.574;2023-11-21T10:45:04;100673.94;;;3.57;89.47
80335;BME280;69653;52.674;13.574;2023-11-21T10:47:35;100678.78;;;3.55;89.16
80335;BME280;69653;52.674;13.574;2023-11-21T10:50:01;100678.41;;;3.46;89.48
80335;BME280;69653;52.674;13.574;2023-11-21T10:52:29;100690.91;;;3.52;89.99
80335;BME280;69653;52.674;13.574;2023-11-21T10:54:54;100693.53;;;3.47;89.51
80335;BME280;69653;52.674;13.574;2023-11-21T10:57:20;100679.16;;;3.41;89.97
80335;BME280;69653;52.674;13.574;2023-11-21T10:59:48;100690.34;;;3.50;90.24
80335;BME280;69653;52.674;13.574;2023-11-21T11:02:24;100683.34;;;3.54;89.20
80335;BME280;69653;52.674;13.574;2023-11-21T11:04:54;100688.28;;;3.57;89.44
80335;BME280;69653;52.674;13.574;2023-11-21T11:07:26;100678.47;;;3.51;89.78
80335;BME280;69653;52.674;13.574;2023-11-21T11:09:53;100685.50;;;3.52;90.17
80335;BME280;69653;52.674;13.574;2023-11-21T11:12:19;100691.75;;;3.53;90.05
80335;BME280;69653;52.674;13.574;2023-11-21T11:14:45;100699.66;;;3.59;91.99
80335;BME280;69653;52.674;13.574;2023-11-21T11:17:10;100701.81;;;3.57;90.61
80335;BME280;69653;52.674;13.574;2023-11-21T11:19:36;100705.31;;;3.58;90.23
80335;BME280;69653;52.674;13.574;2023-11-21T11:22:34;100711.53;;;3.58;91.34
80335;BME280;69653;52.674;13.574;2023-11-21T11:28:01;100707.44;;;3.56;91.06
80335;BME280;69653;52.674;13.574;2023-11-21T11:30:47;100713.06;;;3.49;90.82
80335;BME280;69653;52.674;13.574;2023-11-21T11:34:06;100716.00;;;3.48;90.89
80335;BME280;69653;52.674;13.574;2023-11-21T11:38:45;100721.78;;;3.34;89.85
80335;BME280;69653;52.674;13.574;2023-11-21T11:41:11;100736.03;;;3.30;90.09
80335;BME280;69653;52.674;13.574;2023-11-21T11:43:37;100729.97;;;3.23;90.56
80335;BME280;69653;52.674;13.574;2023-11-21T11:46:10;100737.00;;;3.24;91.58
80335;BME280;69653;52.674;13.574;2023-11-21T11:48:39;100744.03;;;3.25;91.26
80335;BME280;69653;52.674;13.574;2023-11-21T11:51:15;100743.41;;;3.18;90.95
80335;BME280;69653;52.674;13.574;2023-11-21T11:53:43;100755.53;;;3.15;91.69
80335;BME280;69653;52.674;13.574;2023-11-21T11:56:30;100757.66;;;3.13;92.42
80335;BME280;69653;52.674;13.574;2023-11-21T11:58:59;100759.16;;;3.04;91.91
80335;BME280;69653;52.674;13.574;2023-11-21T12:01:26;100764.38;;;3.11;92.53
80335;BME280;69653;52.674;13.574;2023-11-21T12:06:36;100756.34;;;3.16;92.48
80335;BME280;69653;52.674;13.574;2023-11-21T12:09:04;100764.13;;;3.12;93.83
80335;BME280;69653;52.674;13.574;2023-11-21T12:11:31;100768.06;;;3.05;93.69
80335;BME280;69653;52.674;13.574;2023-11-21T12:13:57;100777.00;;;3.05;93.85
80335;BME280;69653;52.674;13.574;2023-11-21T12:16:25;100770.44;;;3.01;93.91
80335;BME280;69653;52.674;13.574;2023-11-21T12:18:53;100775.44;;;2.92;94.40
80335;BME280;69653;52.674;13.574;2023-11-21T12:21:19;100784.69;;;2.97;95.24
80335;BME280;69653;52.674;13.574;2023-11-21T12:23:45;100787.94;;;2.99;95.47
80335;BME280;69653;52.674;13.574;2023-11-21T12:26:12;100787.44;;;3.02;95.78
80335;BME280;69653;52.674;13.574;2023-11-21T12:28:38;100799.06;;;3.02;95.06
80335;BME280;69653;52.674;13.574;2023-11-21T12:31:04;100806.19;;;2.91;94.45
80335;BME280;69653;52.674;13.574;2023-11-21T12:33:32;100803.66;;;2.85;94.44
80335;BME280;69653;52.674;13.574;2023-11-21T12:35:58;100813.25;;;2.92;94.87
80335;BME280;69653;52.674;13.574;2023-11-21T12:38:23;100802.00;;;2.84;94.81
80335;BME280;69653;52.674;13.574;2023-11-21T12:40:50;100813.25;;;2.92;95.91
80335;BME280;69653;52.674;13.574;2023-11-21T12:43:16;100810.44;;;2.87;93.69
80335;BME280;69653;52.674;13.574;2023-11-21T12:45:43;100806.19;;;2.91;94.55
80335;BME280;69653;52.674;13.574;2023-11-21T12:48:09;100813.56;;;2.96;94.65
80335;BME280;69653;52.674;13.574;2023-11-21T12:50:37;100814.88;;;2.93;93.08
80335;BME280;69653;52.674;13.574;2023-11-21T12:53:11;100823.38;;;3.02;93.46
80335;BME280;69653;52.674;13.574;2023-11-21T12:55:44;100815.44;;;2.96;93.07